createdAt,value
2018-08-04T00:00:12.122Z,22.43
2018-08-04T00:01:21.970Z,22.43
2018-08-04T00:03:01.071Z,22.43
2018-08-04T00:04:10.645Z,22.36
2018-08-04T00:05:20.218Z,22.39
2018-08-04T00:06:30.065Z,22.42
2018-08-04T00:07:39.646Z,22.42
2018-08-04T00:08:49.224Z,22.46
2018-08-04T00:09:59.070Z,22.45
2018-08-04T00:11:08.650Z,22.36
2018-08-04T00:12:18.228Z,22.3
2018-08-04T00:13:28.346Z,22.35
2018-08-04T00:14:38.195Z,22.35
2018-08-04T00:15:48.041Z,22.2
2018-08-04T00:16:57.887Z,22.22
2018-08-04T00:18:07.466Z,22.14
2018-08-04T00:19:17.088Z,22.21
2018-08-04T00:20:27.210Z,22.22
2018-08-04T00:21:37.058Z,22.24
2018-08-04T00:22:47.186Z,22.22
2018-08-04T00:23:56.781Z,22.3
2018-08-04T00:25:06.359Z,22.18
2018-08-04T00:26:16.214Z,22.24
2018-08-04T00:27:26.339Z,22.18
2018-08-04T00:28:36.180Z,22.2
2018-08-04T00:29:45.755Z,22.14
2018-08-04T00:30:55.328Z,22.07
2018-08-04T00:32:05.437Z,22.09
2018-08-04T00:33:15.285Z,22.14
2018-08-04T00:34:25.126Z,22.14
2018-08-04T00:35:34.698Z,22.03
2018-08-04T00:36:44.005Z,21.98
2018-08-04T00:37:53.583Z,21.96
2018-08-04T00:39:03.432Z,22.05
2018-08-04T00:40:13.001Z,22.05
2018-08-04T00:41:22.595Z,22.03
2018-08-04T00:42:32.707Z,21.99
2018-08-04T00:43:42.279Z,21.98
2018-08-04T00:44:52.384Z,22.03
2018-08-04T00:46:02.225Z,22.03
2018-08-04T00:47:12.343Z,21.94
2018-08-04T00:48:22.190Z,21.91
2018-08-04T00:49:32.031Z,21.99
2018-08-04T00:50:41.614Z,21.84
2018-08-04T00:51:51.456Z,21.86
2018-08-04T00:53:01.032Z,21.79
2018-08-04T00:54:10.607Z,21.84
2018-08-04T00:55:19.917Z,21.74
2018-08-04T00:56:29.489Z,21.8
2018-08-04T00:57:39.062Z,21.71
2018-08-04T00:58:48.641Z,21.82
2018-08-04T00:59:58.493Z,21.83
2018-08-04T01:01:08.349Z,21.92
2018-08-04T01:02:18.194Z,21.77
2018-08-04T01:03:28.309Z,21.82
2018-08-04T01:04:38.160Z,21.84
2018-08-04T01:05:47.463Z,21.79
2018-08-04T01:06:57.040Z,21.77
2018-08-04T01:08:06.889Z,21.79
2018-08-04T01:09:16.742Z,21.79
2018-08-04T01:10:26.046Z,21.77
2018-08-04T01:11:35.619Z,21.88
2018-08-04T01:12:45.194Z,21.79
2018-08-04T01:13:55.042Z,21.77
2018-08-04T01:15:04.617Z,21.74
2018-08-04T01:16:13.705Z,21.68
2018-08-04T01:17:23.286Z,21.69
2018-08-04T01:18:33.127Z,21.67
2018-08-04T01:19:42.437Z,21.74
2018-08-04T01:20:52.015Z,21.74
2018-08-04T01:22:01.319Z,21.65
2018-08-04T01:23:11.160Z,21.62
2018-08-04T01:24:20.466Z,21.59
2018-08-04T01:25:30.308Z,21.59
2018-08-04T01:26:40.148Z,21.47
2018-08-04T01:27:50.045Z,21.5
2018-08-04T01:28:59.888Z,21.58
2018-08-04T01:30:09.463Z,21.58
2018-08-04T01:31:19.040Z,21.54
2018-08-04T01:32:28.646Z,21.52
2018-08-04T01:33:38.492Z,21.53
2018-08-04T01:34:47.800Z,21.5
2018-08-04T01:35:57.392Z,21.53
2018-08-04T01:37:07.240Z,21.46
2018-08-04T01:38:17.089Z,21.46
2018-08-04T01:39:26.723Z,21.56
2018-08-04T01:40:36.564Z,21.59
2018-08-04T01:41:45.910Z,21.5
2018-08-04T01:42:55.757Z,21.61
2018-08-04T01:44:05.642Z,21.47
2018-08-04T01:45:15.534Z,21.46
2018-08-04T01:46:25.652Z,21.42
2018-08-04T01:47:35.492Z,21.46
2018-08-04T01:48:45.336Z,21.43
2018-08-04T01:49:54.655Z,21.34
2018-08-04T01:51:04.791Z,21.38
2018-08-04T01:52:14.920Z,21.4
2018-08-04T01:53:24.764Z,21.4
2018-08-04T01:54:34.065Z,21.34
2018-08-04T01:55:43.634Z,21.43
2018-08-04T01:56:53.211Z,21.43
2018-08-04T01:58:03.331Z,21.43
2018-08-04T01:59:13.444Z,21.37
2018-08-04T02:00:23.029Z,21.4
2018-08-04T02:01:32.614Z,21.37
2018-08-04T02:02:42.459Z,21.32
2018-08-04T02:03:52.306Z,21.37
2018-08-04T02:05:01.337Z,21.32
2018-08-04T02:06:11.181Z,21.35
2018-08-04T02:07:21.265Z,21.28
2018-08-04T02:08:31.185Z,21.27
2018-08-04T02:09:40.491Z,21.25
2018-08-04T02:10:50.601Z,21.31
2018-08-04T02:12:00.172Z,21.29
2018-08-04T02:13:09.748Z,21.29
2018-08-04T02:14:19.325Z,21.32
2018-08-04T02:15:29.179Z,21.38
2018-08-04T02:16:38.481Z,21.27
2018-08-04T02:17:48.594Z,21.35
2018-08-04T02:18:57.636Z,21.27
2018-08-04T02:20:06.402Z,21.21
2018-08-04T02:21:16.246Z,21.27
2018-08-04T02:22:26.360Z,21.27
2018-08-04T02:23:35.665Z,21.29
2018-08-04T02:24:45.776Z,21.32
2018-08-04T02:25:55.623Z,21.4
2018-08-04T02:27:05.469Z,21.42
2018-08-04T02:28:15.049Z,21.37
2018-08-04T02:29:24.622Z,21.31
2018-08-04T02:30:34.473Z,21.28
2018-08-04T02:31:44.590Z,21.34
2018-08-04T02:32:54.446Z,21.31
2018-08-04T02:34:03.761Z,21.22
2018-08-04T02:35:13.891Z,21.24
2018-08-04T02:36:23.764Z,21.24
2018-08-04T02:37:33.670Z,21.17
2018-08-04T02:38:43.797Z,21.27
2018-08-04T02:39:53.653Z,21.31
2018-08-04T02:41:03.519Z,21.28
2018-08-04T02:42:13.423Z,21.35
2018-08-04T02:43:23.064Z,21.25
2018-08-04T02:44:33.184Z,21.27
2018-08-04T02:45:43.042Z,21.19
2018-08-04T02:46:52.895Z,21.24
2018-08-04T02:48:02.819Z,21.14
2018-08-04T02:49:12.398Z,21.19
2018-08-04T02:50:21.161Z,21.13
2018-08-04T02:51:31.010Z,21.21
2018-08-04T02:52:40.587Z,21.21
2018-08-04T02:53:50.444Z,21.21
2018-08-04T02:55:00.289Z,21.19
2018-08-04T02:56:09.597Z,21.19
2018-08-04T02:57:19.440Z,21.14
2018-08-04T02:58:29.287Z,21.14
2018-08-04T02:59:39.147Z,21.21
2018-08-04T03:00:49.049Z,21.12
2018-08-04T03:01:58.639Z,21.12
2018-08-04T03:03:08.775Z,21.21
2018-08-04T03:04:18.629Z,21.1
2018-08-04T03:05:28.203Z,21.12
2018-08-04T03:06:38.335Z,21.14
2018-08-04T03:07:48.456Z,21.14
2018-08-04T03:08:58.584Z,21.14
2018-08-04T03:10:08.179Z,21.03
2018-08-04T03:11:18.027Z,21.12
2018-08-04T03:12:27.931Z,21.16
2018-08-04T03:13:36.973Z,21.03
2018-08-04T03:14:46.559Z,21.07
2018-08-04T03:15:56.149Z,21.1
2018-08-04T03:17:06.002Z,21.1
2018-08-04T03:18:15.912Z,21.17
2018-08-04T03:19:25.491Z,21.14
2018-08-04T03:20:35.363Z,21.07
2018-08-04T03:21:44.947Z,21.24
2018-08-04T03:22:54.524Z,21.24
2018-08-04T03:24:04.375Z,21.19
2018-08-04T03:25:14.230Z,21.1
2018-08-04T03:26:23.814Z,21.09
2018-08-04T03:27:33.665Z,21.1
2018-08-04T03:28:43.817Z,21.13
2018-08-04T03:29:53.128Z,21.09
2018-08-04T03:31:02.705Z,21.21
2018-08-04T03:32:12.025Z,21.12
2018-08-04T03:33:21.873Z,21.1
2018-08-04T03:34:32.044Z,21.16
2018-08-04T03:35:41.892Z,21.16
2018-08-04T03:36:51.747Z,21.19
2018-08-04T03:38:00.784Z,21.22
2018-08-04T03:39:10.358Z,21.21
2018-08-04T03:40:20.206Z,21.21
2018-08-04T03:41:29.778Z,21.13
2018-08-04T03:42:39.083Z,21.16
2018-08-04T03:43:48.932Z,21.16
2018-08-04T03:44:58.772Z,21.12
2018-08-04T03:46:07.809Z,21.07
2018-08-04T03:47:17.651Z,21.06
2018-08-04T03:48:27.759Z,21.01
2018-08-04T03:49:37.334Z,21.13
2018-08-04T03:50:46.916Z,21.13
2018-08-04T03:51:56.493Z,21.03
2018-08-04T03:53:06.334Z,21.1
2018-08-04T03:54:16.448Z,21.07
2018-08-04T03:55:25.763Z,21.16
2018-08-04T03:56:35.598Z,21.19
2018-08-04T03:57:45.448Z,21.1
2018-08-04T03:58:55.572Z,21.14
2018-08-04T04:00:05.696Z,21.24
2018-08-04T04:01:15.542Z,21.27
2018-08-04T04:02:25.388Z,21.27
2018-08-04T04:03:34.700Z,21.29
2018-08-04T04:04:44.862Z,21.28
2018-08-04T04:05:54.709Z,21.37
2018-08-04T04:07:04.568Z,21.28
2018-08-04T04:08:14.420Z,21.31
2018-08-04T04:09:23.996Z,21.19
2018-08-04T04:10:33.300Z,21.17
2018-08-04T04:11:42.878Z,21.17
2018-08-04T04:12:51.911Z,21.21
2018-08-04T04:14:01.756Z,21.32
2018-08-04T04:15:11.605Z,21.22
2018-08-04T04:16:21.756Z,21.24
2018-08-04T04:17:31.328Z,21.35
2018-08-04T04:18:41.176Z,21.24
2018-08-04T04:19:51.020Z,21.28
2018-08-04T04:21:00.324Z,21.27
2018-08-04T04:22:09.632Z,21.31
2018-08-04T04:23:19.523Z,21.24
2018-08-04T04:24:29.369Z,21.27
2018-08-04T04:25:39.213Z,21.29
2018-08-04T04:26:48.795Z,21.32
2018-08-04T04:27:58.915Z,21.27
2018-08-04T04:29:09.046Z,21.27
2018-08-04T04:30:18.886Z,21.31
2018-08-04T04:31:28.186Z,21.31
2018-08-04T04:32:38.038Z,21.32
2018-08-04T04:33:47.663Z,21.25
2018-08-04T04:34:57.510Z,21.28
2018-08-04T04:36:07.088Z,21.25
2018-08-04T04:37:16.718Z,21.25
2018-08-04T04:38:26.837Z,21.29
2018-08-04T04:39:36.742Z,21.28
2018-08-04T04:40:46.318Z,21.29
2018-08-04T04:41:55.629Z,21.29
2018-08-04T04:43:05.750Z,21.29
2018-08-04T04:44:15.059Z,21.29
2018-08-04T04:45:24.636Z,21.29
2018-08-04T04:46:34.757Z,21.25
2018-08-04T04:47:44.360Z,21.25
2018-08-04T04:48:54.487Z,21.29
2018-08-04T04:50:04.069Z,21.28
2018-08-04T04:51:13.693Z,21.27
2018-08-04T04:52:23.805Z,21.27
2018-08-04T04:53:33.382Z,21.28
2018-08-04T04:54:42.690Z,21.34
2018-08-04T04:55:52.813Z,21.34
2018-08-04T04:57:02.394Z,21.29
2018-08-04T04:58:12.258Z,21.31
2018-08-04T04:59:22.105Z,21.35
2018-08-04T05:00:31.680Z,21.35
2018-08-04T05:01:40.989Z,21.35
2018-08-04T05:02:50.845Z,21.35
2018-08-04T05:04:00.424Z,21.37
2018-08-04T05:05:09.734Z,21.35
2018-08-04T05:06:19.602Z,21.4
2018-08-04T05:07:29.444Z,21.32
2018-08-04T05:08:39.633Z,21.42
2018-08-04T05:09:49.305Z,21.34
2018-08-04T05:10:59.164Z,21.42
2018-08-04T05:12:08.472Z,21.44
2018-08-04T05:13:18.766Z,21.49
2018-08-04T05:14:28.693Z,21.46
2018-08-04T05:15:38.810Z,21.5
2018-08-04T05:16:48.389Z,21.49
2018-08-04T05:17:58.228Z,21.5
2018-08-04T05:19:08.083Z,21.56
2018-08-04T05:20:17.708Z,21.49
2018-08-04T05:21:27.669Z,21.58
2018-08-04T05:22:37.590Z,21.58
2018-08-04T05:23:46.893Z,21.64
2018-08-04T05:24:56.469Z,21.69
2018-08-04T05:26:06.042Z,21.72
2018-08-04T05:27:15.617Z,21.74
2018-08-04T05:28:24.924Z,21.72
2018-08-04T05:29:34.503Z,21.69
2018-08-04T05:30:44.349Z,21.77
2018-08-04T05:31:53.678Z,21.77
2018-08-04T05:33:03.715Z,21.82
2018-08-04T05:34:13.572Z,21.8
2018-08-04T05:35:23.423Z,21.88
2018-08-04T05:36:33.552Z,21.8
2018-08-04T05:37:43.399Z,21.79
2018-08-04T05:38:53.514Z,21.77
2018-08-04T05:40:03.353Z,21.77
2018-08-04T05:41:13.471Z,21.8
2018-08-04T05:42:23.319Z,21.82
2018-08-04T05:43:33.374Z,21.8
2018-08-04T05:44:42.463Z,21.84
2018-08-04T05:45:51.769Z,21.9
2018-08-04T05:47:01.625Z,21.88
2018-08-04T05:48:11.742Z,21.96
2018-08-04T05:49:21.339Z,21.94
2018-08-04T05:50:30.917Z,21.99
2018-08-04T05:51:40.758Z,21.94
2018-08-04T05:52:50.890Z,22.06
2018-08-04T05:54:01.002Z,22.03
2018-08-04T05:55:10.848Z,21.98
2018-08-04T05:56:20.695Z,21.83
2018-08-04T05:57:30.544Z,21.86
2018-08-04T05:58:40.119Z,21.88
2018-08-04T05:59:49.974Z,22.05
2018-08-04T06:00:59.283Z,21.98
2018-08-04T06:02:09.152Z,21.86
2018-08-04T06:03:19.097Z,21.9
2018-08-04T06:04:29.285Z,21.79
2018-08-04T06:05:39.423Z,21.86
2018-08-04T06:06:49.278Z,21.86
2018-08-04T06:07:59.125Z,21.79
2018-08-04T06:09:08.969Z,21.74
2018-08-04T06:10:19.081Z,21.94
2018-08-04T06:11:29.203Z,21.86
2018-08-04T06:12:38.786Z,21.96
2018-08-04T06:13:48.632Z,21.96
2018-08-04T06:14:57.938Z,21.94
2018-08-04T06:16:07.781Z,22.06
2018-08-04T06:17:17.366Z,21.9
2018-08-04T06:18:27.482Z,21.94
2018-08-04T06:19:37.323Z,21.91
2018-08-04T06:20:46.905Z,21.86
2018-08-04T06:21:56.767Z,21.74
2018-08-04T06:23:06.138Z,21.79
2018-08-04T06:24:16.032Z,21.91
2018-08-04T06:25:25.875Z,21.88
2018-08-04T06:26:35.982Z,21.82
2018-08-04T06:27:45.848Z,21.79
2018-08-04T06:28:55.972Z,21.86
2018-08-04T06:30:05.276Z,21.86
2018-08-04T06:31:15.123Z,21.82
2018-08-04T06:32:24.971Z,21.84
2018-08-04T06:33:34.850Z,21.82
2018-08-04T06:34:44.420Z,21.83
2018-08-04T06:35:53.997Z,21.94
2018-08-04T06:37:03.854Z,22.02
2018-08-04T06:38:13.429Z,22
2018-08-04T06:39:23.545Z,22.03
2018-08-04T06:40:33.122Z,21.98
2018-08-04T06:41:43.376Z,21.92
2018-08-04T06:42:53.419Z,22.03
2018-08-04T06:44:03.265Z,22.02
2018-08-04T06:45:13.105Z,22.02
2018-08-04T06:46:22.417Z,22.2
2018-08-04T06:47:31.992Z,22.22
2018-08-04T06:48:41.309Z,22.21
2018-08-04T06:49:51.164Z,22.14
2018-08-04T06:51:01.273Z,22.21
2018-08-04T06:52:11.124Z,22.21
2018-08-04T06:53:20.694Z,22.28
2018-08-04T06:54:30.549Z,22.3
2018-08-04T06:55:40.155Z,22.35
2018-08-04T06:56:50.002Z,22.39
2018-08-04T06:57:59.578Z,22.4
2018-08-04T06:59:09.704Z,22.39
2018-08-04T07:00:19.557Z,22.45
2018-08-04T07:01:29.401Z,22.43
2018-08-04T07:02:38.970Z,22.52
2018-08-04T07:03:48.820Z,22.65
2018-08-04T07:04:58.714Z,22.61
2018-08-04T07:06:08.580Z,22.6
2018-08-04T07:07:18.424Z,22.58
2018-08-04T07:08:28.267Z,22.64
2018-08-04T07:09:38.391Z,22.75
2018-08-04T07:10:48.241Z,22.61
2018-08-04T07:11:58.090Z,22.61
2018-08-04T07:13:07.937Z,22.67
2018-08-04T07:14:17.516Z,22.83
2018-08-04T07:15:27.093Z,22.88
2018-08-04T07:16:36.673Z,22.82
2018-08-04T07:17:46.516Z,22.88
2018-08-04T07:18:55.827Z,22.91
2018-08-04T07:20:05.406Z,22.92
2018-08-04T07:21:15.254Z,22.98
2018-08-04T07:22:25.099Z,22.95
2018-08-04T07:23:34.684Z,23.01
2018-08-04T07:24:43.984Z,23.02
2018-08-04T07:25:53.837Z,22.98
2018-08-04T07:27:03.144Z,22.95
2018-08-04T07:28:13.264Z,23.09
2018-08-04T07:29:22.843Z,23.17
2018-08-04T07:30:32.702Z,23.19
2018-08-04T07:31:42.273Z,23.22
2018-08-04T07:32:51.574Z,23.23
2018-08-04T07:34:00.876Z,23.23
2018-08-04T07:35:10.460Z,23.2
2018-08-04T07:36:20.313Z,23.2
2018-08-04T07:37:30.434Z,23.17
2018-08-04T07:38:39.761Z,23.23
2018-08-04T07:39:49.607Z,23.23
2018-08-04T07:40:59.707Z,23.4
2018-08-04T07:42:10.094Z,23.43
2018-08-04T07:43:20.205Z,23.35
2018-08-04T07:44:30.320Z,23.38
2018-08-04T07:45:40.163Z,23.42
2018-08-04T07:46:49.196Z,23.36
2018-08-04T07:47:59.049Z,23.36
2018-08-04T07:49:09.123Z,23.42
2018-08-04T07:50:19.168Z,23.51
2018-08-04T07:51:28.797Z,23.5
2018-08-04T07:52:38.110Z,23.58
2018-08-04T07:53:47.991Z,23.58
2018-08-04T07:54:57.273Z,23.6
2018-08-04T07:56:07.126Z,23.61
2018-08-04T07:57:16.705Z,23.58
2018-08-04T07:58:26.552Z,23.55
2018-08-04T07:59:35.961Z,23.53
2018-08-04T08:00:46.071Z,23.51
2018-08-04T08:01:55.374Z,23.63
2018-08-04T08:03:05.226Z,23.68
2018-08-04T08:04:14.804Z,23.73
2018-08-04T08:05:24.109Z,23.76
2018-08-04T08:06:33.972Z,23.87
2018-08-04T08:07:43.286Z,23.85
2018-08-04T08:08:52.857Z,23.88
2018-08-04T08:10:02.432Z,23.93
2018-08-04T08:11:11.851Z,24.08
2018-08-04T08:12:21.771Z,24.03
2018-08-04T08:13:31.620Z,24.1
2018-08-04T08:14:41.469Z,24.02
2018-08-04T08:15:51.368Z,24.15
2018-08-04T08:17:01.487Z,24.18
2018-08-04T08:18:10.517Z,24.18
2018-08-04T08:19:20.455Z,24.22
2018-08-04T08:20:30.071Z,24.32
2018-08-04T08:21:39.384Z,24.21
2018-08-04T08:22:49.239Z,24.3
2018-08-04T08:23:58.824Z,24.37
2018-08-04T08:25:08.675Z,24.35
2018-08-04T08:26:18.791Z,24.34
2018-08-04T08:27:28.367Z,24.45
2018-08-04T08:28:38.212Z,24.49
2018-08-04T08:29:48.072Z,24.55
2018-08-04T08:30:58.190Z,24.58
2018-08-04T08:32:08.056Z,24.53
2018-08-04T08:33:17.366Z,24.57
2018-08-04T08:34:27.214Z,24.64
2018-08-04T08:35:37.322Z,24.62
2018-08-04T08:36:46.896Z,24.68
2018-08-04T08:37:57.056Z,24.67
2018-08-04T08:39:06.902Z,24.71
2018-08-04T08:40:16.517Z,24.78
2018-08-04T08:41:25.894Z,24.84
2018-08-04T08:42:35.761Z,24.77
2018-08-04T08:43:45.880Z,24.8
2018-08-04T08:44:55.732Z,24.83
2018-08-04T08:46:05.600Z,24.77
2018-08-04T08:47:15.275Z,24.87
2018-08-04T08:48:24.902Z,24.87
2018-08-04T08:49:34.481Z,24.85
2018-08-04T08:50:44.055Z,24.88
2018-08-04T08:51:53.362Z,25.03
2018-08-04T08:53:02.866Z,25.03
2018-08-04T08:54:13.647Z,25.02
2018-08-04T08:55:23.624Z,25.13
2018-08-04T08:56:33.482Z,25.13
2018-08-04T08:57:42.803Z,25.2
2018-08-04T08:58:52.386Z,25.24
2018-08-04T09:00:02.513Z,25.23
2018-08-04T09:01:12.387Z,25.25
2018-08-04T09:02:22.577Z,25.4
2018-08-04T09:03:32.708Z,25.28
2018-08-04T09:04:42.555Z,25.42
2018-08-04T09:05:52.678Z,25.36
2018-08-04T09:07:02.578Z,25.39
2018-08-04T09:08:12.435Z,25.46
2018-08-04T09:09:22.114Z,25.38
2018-08-04T09:10:31.704Z,25.43
2018-08-04T09:11:40.745Z,25.38
2018-08-04T09:12:50.049Z,25.45
2018-08-04T09:13:59.631Z,25.54
2018-08-04T09:15:09.488Z,25.55
2018-08-04T09:16:19.609Z,25.51
2018-08-04T09:17:29.194Z,25.61
2018-08-04T09:18:39.316Z,25.65
2018-08-04T09:19:48.623Z,25.6
2018-08-04T09:20:58.746Z,25.79
2018-08-04T09:22:08.587Z,25.8
2018-08-04T09:23:18.704Z,25.85
2018-08-04T09:24:28.280Z,25.82
2018-08-04T09:25:37.885Z,25.87
2018-08-04T09:26:47.742Z,26.05
2018-08-04T09:27:57.317Z,26.09
2018-08-04T09:29:06.352Z,26.07
2018-08-04T09:30:15.928Z,26.12
2018-08-04T09:31:25.237Z,26.07
2018-08-04T09:32:35.079Z,26.09
2018-08-04T09:33:44.928Z,26.13
2018-08-04T09:34:54.775Z,26.02
2018-08-04T09:36:04.354Z,26.09
2018-08-04T09:37:13.941Z,26.02
2018-08-04T09:38:24.115Z,26.2
2018-08-04T09:39:33.419Z,26.2
2018-08-04T09:40:43.570Z,26.26
2018-08-04T09:41:53.147Z,26.25
2018-08-04T09:43:02.179Z,26.32
2018-08-04T09:44:11.751Z,26.36
2018-08-04T09:45:21.065Z,26.45
2018-08-04T09:46:30.643Z,26.48
2018-08-04T09:47:40.490Z,26.57
2018-08-04T09:48:50.070Z,26.58
2018-08-04T09:49:59.384Z,26.65
2018-08-04T09:51:09.516Z,26.54
2018-08-04T09:52:19.089Z,26.52
2018-08-04T09:53:29.018Z,26.63
2018-08-04T09:54:38.599Z,26.52
2018-08-04T09:55:47.909Z,26.58
2018-08-04T09:56:57.763Z,26.52
2018-08-04T09:58:07.353Z,26.44
2018-08-04T09:59:17.208Z,26.6
2018-08-04T10:00:26.519Z,26.66
2018-08-04T10:01:36.372Z,26.81
2018-08-04T10:02:45.950Z,26.8
2018-08-04T10:03:56.105Z,26.73
2018-08-04T10:05:06.256Z,26.77
2018-08-04T10:06:16.058Z,26.73
2018-08-04T10:07:25.902Z,26.73
2018-08-04T10:08:36.018Z,26.76
2018-08-04T10:09:45.624Z,26.8
2018-08-04T10:10:55.471Z,26.73
2018-08-04T10:12:04.794Z,26.77
2018-08-04T10:13:14.656Z,26.81
2018-08-04T10:14:24.777Z,26.81
2018-08-04T10:15:34.354Z,26.73
2018-08-04T10:16:44.470Z,26.84
2018-08-04T10:17:54.044Z,26.92
2018-08-04T10:19:03.625Z,27.04
2018-08-04T10:20:13.874Z,26.95
2018-08-04T10:21:24.216Z,27.04
2018-08-04T10:22:33.530Z,27.18
2018-08-04T10:23:43.660Z,27.12
2018-08-04T10:24:53.784Z,27.04
2018-08-04T10:26:03.795Z,27.03
2018-08-04T10:27:13.839Z,27.07
2018-08-04T10:28:23.700Z,27.06
2018-08-04T10:29:33.008Z,27.03
2018-08-04T10:30:42.319Z,27.02
2018-08-04T10:31:52.587Z,26.99
2018-08-04T10:33:02.553Z,27.31
2018-08-04T10:34:12.127Z,27.27
2018-08-04T10:35:21.162Z,27.24
2018-08-04T10:36:31.007Z,27.19
2018-08-04T10:37:41.133Z,27.43
2018-08-04T10:38:50.709Z,27.19
2018-08-04T10:40:00.285Z,27.18
2018-08-04T10:41:09.868Z,27.28
2018-08-04T10:42:19.176Z,27.4
2018-08-04T10:43:28.758Z,27.28
2018-08-04T10:44:38.677Z,27.37
2018-08-04T10:45:48.797Z,27.43
2018-08-04T10:46:58.651Z,27.34
2018-08-04T10:48:08.773Z,27.46
2018-08-04T10:49:18.889Z,27.55
2018-08-04T10:50:29.020Z,27.49
2018-08-04T10:51:38.601Z,27.79
2018-08-04T10:52:48.171Z,27.72
2018-08-04T10:53:57.760Z,27.87
2018-08-04T10:55:07.878Z,27.81
2018-08-04T10:56:17.453Z,27.72
2018-08-04T10:57:26.491Z,27.78
2018-08-04T10:58:36.609Z,27.81
2018-08-04T10:59:45.656Z,27.97
2018-08-04T11:00:55.798Z,28.15
2018-08-04T11:02:05.644Z,28.21
2018-08-04T11:03:15.225Z,28.14
2018-08-04T11:04:24.534Z,28
2018-08-04T11:05:34.113Z,28
2018-08-04T11:06:43.971Z,28.06
2018-08-04T11:07:53.283Z,28.31
2018-08-04T11:09:02.879Z,28.43
2018-08-04T11:10:12.730Z,28.4
2018-08-04T11:11:22.622Z,28.54
2018-08-04T11:12:32.703Z,28.33
2018-08-04T11:13:42.290Z,28.39
2018-08-04T11:14:51.602Z,28.43
2018-08-04T11:16:01.447Z,28.36
2018-08-04T11:17:11.026Z,28.36
2018-08-04T11:18:20.955Z,28.3
2018-08-04T11:19:30.802Z,28.46
2018-08-04T11:20:40.923Z,28.56
2018-08-04T11:21:50.513Z,28.48
2018-08-04T11:23:00.362Z,28.64
2018-08-04T11:24:10.346Z,28.49
2018-08-04T11:25:20.840Z,28.66
2018-08-04T11:26:30.418Z,28.81
2018-08-04T11:27:40.393Z,28.76
2018-08-04T11:28:50.248Z,28.83
2018-08-04T11:29:59.564Z,28.81
2018-08-04T11:31:08.876Z,28.78
2018-08-04T11:32:18.453Z,28.78
2018-08-04T11:33:28.303Z,28.92
2018-08-04T11:34:37.617Z,29.04
2018-08-04T11:35:47.467Z,29.18
2018-08-04T11:36:57.052Z,29.04
2018-08-04T11:38:06.627Z,29.08
2018-08-04T11:39:16.528Z,28.81
2018-08-04T11:40:26.106Z,29.16
2018-08-04T11:41:35.950Z,29.3
2018-08-04T11:42:45.798Z,29.36
2018-08-04T11:43:55.107Z,29.24
2018-08-04T11:45:04.958Z,29.19
2018-08-04T11:46:15.086Z,29
2018-08-04T11:47:24.938Z,29
2018-08-04T11:48:35.052Z,29.12
2018-08-04T11:49:44.904Z,29.21
2018-08-04T11:50:54.215Z,29.3
2018-08-04T11:52:04.112Z,29.39
2018-08-04T11:53:13.956Z,29.33
2018-08-04T11:54:23.531Z,29.21
2018-08-04T11:55:33.382Z,29.3
2018-08-04T11:56:43.237Z,29.31
2018-08-04T11:57:52.862Z,29.33
2018-08-04T11:59:02.444Z,29.31
2018-08-04T12:00:12.123Z,29.58
2018-08-04T12:01:21.972Z,29.37
2018-08-04T12:02:32.101Z,29.34
2018-08-04T12:03:41.689Z,29.46
2018-08-04T12:04:51.281Z,29.51
2018-08-04T12:06:00.317Z,29.48
2018-08-04T12:07:10.180Z,29.37
2018-08-04T12:08:20.127Z,29.55
2018-08-04T12:09:29.701Z,29.63
2018-08-04T12:10:39.821Z,29.87
2018-08-04T12:11:49.406Z,29.6
2018-08-04T12:12:58.717Z,29.7
2018-08-04T12:14:08.566Z,29.94
2018-08-04T12:15:18.415Z,29.92
2018-08-04T12:16:27.724Z,30.16
2018-08-04T12:17:37.574Z,30.2
2018-08-04T12:18:47.162Z,30.23
2018-08-04T12:19:57.285Z,30.45
2018-08-04T12:21:06.877Z,30.38
2018-08-04T12:22:16.729Z,30.38
2018-08-04T12:23:26.852Z,30.43
2018-08-04T12:24:36.703Z,30.62
2018-08-04T12:25:46.578Z,30.76
2018-08-04T12:26:56.244Z,30.86
2018-08-04T12:28:05.288Z,30.89
2018-08-04T12:29:14.609Z,31.06
2018-08-04T12:30:24.190Z,30.88
2018-08-04T12:31:34.341Z,30.99
2018-08-04T12:32:44.262Z,30.82
2018-08-04T12:33:53.574Z,30.88
2018-08-04T12:35:03.153Z,30.92
2018-08-04T12:36:12.742Z,30.77
2018-08-04T12:37:22.645Z,30.82
2018-08-04T12:38:31.965Z,30.98
2018-08-04T12:39:42.106Z,31.09
2018-08-04T12:40:51.696Z,31.07
2018-08-04T12:42:01.293Z,31.25
2018-08-04T12:43:10.877Z,31.5
2018-08-04T12:44:20.732Z,31.31
2018-08-04T12:45:30.709Z,31.56
2018-08-04T12:46:40.447Z,31.48
2018-08-04T12:47:50.301Z,31.35
2018-08-04T12:48:59.896Z,31.5
2018-08-04T12:50:09.486Z,31.62
2018-08-04T12:51:19.074Z,31.54
2018-08-04T12:52:28.949Z,31.69
2018-08-04T12:53:38.814Z,31.75
2018-08-04T12:54:48.409Z,32.01
2018-08-04T12:55:57.993Z,32.1
2018-08-04T12:57:07.599Z,32.25
2018-08-04T12:58:17.460Z,32.21
2018-08-04T12:59:27.362Z,32.06
2018-08-04T13:00:36.982Z,31.93
2018-08-04T13:01:46.337Z,32.25
2018-08-04T13:02:56.522Z,32.26
2018-08-04T13:04:05.842Z,32.18
2018-08-04T13:05:15.693Z,31.95
2018-08-04T13:06:25.278Z,31.86
2018-08-04T13:07:34.599Z,31.75
2018-08-04T13:08:44.939Z,31.84
2018-08-04T13:09:55.187Z,31.99
2018-08-04T13:11:05.048Z,32.11
2018-08-04T13:12:14.917Z,32.06
2018-08-04T13:13:24.508Z,32.06
2018-08-04T13:14:34.642Z,32.22
2018-08-04T13:15:43.425Z,32.22
2018-08-04T13:16:53.278Z,32.01
2018-08-04T13:18:02.870Z,32.18
2018-08-04T13:19:12.462Z,32.1
2018-08-04T13:20:22.048Z,32.01
2018-08-04T13:21:31.908Z,32.23
2018-08-04T13:22:41.761Z,32.3
2018-08-04T13:23:51.346Z,31.93
2018-08-04T13:25:01.263Z,32.14
2018-08-04T13:26:11.125Z,32.23
2018-08-04T13:27:20.975Z,32.41
2018-08-04T13:28:30.561Z,32.29
2018-08-04T13:29:40.551Z,32.43
2018-08-04T13:30:50.881Z,32.33
2018-08-04T13:32:00.736Z,32.23
2018-08-04T13:33:10.329Z,32.15
2018-08-04T13:34:19.917Z,32.23
2018-08-04T13:35:29.514Z,32.13
2018-08-04T13:36:39.371Z,31.99
2018-08-04T13:37:49.500Z,31.81
2018-08-04T13:38:58.812Z,31.93
2018-08-04T13:40:08.128Z,31.91
2018-08-04T13:41:17.717Z,31.96
2018-08-04T13:42:27.300Z,31.89
2018-08-04T13:43:37.505Z,32
2018-08-04T13:44:46.827Z,32.15
2018-08-04T13:45:56.144Z,32.08
2018-08-04T13:47:05.465Z,31.96
2018-08-04T13:48:15.314Z,31.91
2018-08-04T13:49:25.187Z,32.03
2018-08-04T13:50:34.495Z,32.07
2018-08-04T13:51:44.082Z,31.92
2018-08-04T13:52:53.663Z,31.91
2018-08-04T13:54:03.525Z,31.91
2018-08-04T13:55:13.106Z,31.89
2018-08-04T13:56:22.699Z,32.06
2018-08-04T13:57:32.015Z,32.21
2018-08-04T13:58:41.601Z,32.41
2018-08-04T13:59:51.587Z,32.5
2018-08-04T14:01:01.739Z,32.69
2018-08-04T14:02:11.332Z,32.79
2018-08-04T14:03:20.921Z,32.7
2018-08-04T14:04:30.791Z,32.92
2018-08-04T14:05:40.388Z,33.03
2018-08-04T14:06:50.536Z,33.03
2018-08-04T14:08:00.416Z,33.03
2018-08-04T14:09:10.540Z,32.67
2018-08-04T14:10:20.130Z,32.75
2018-08-04T14:11:29.989Z,32.69
2018-08-04T14:12:39.578Z,32.84
2018-08-04T14:13:49.213Z,32.96
2018-08-04T14:14:58.803Z,32.89
2018-08-04T14:16:08.449Z,32.92
2018-08-04T14:17:18.327Z,33.12
2018-08-04T14:18:27.661Z,32.97
2018-08-04T14:19:37.561Z,33.04
2018-08-04T14:20:47.695Z,32.97
2018-08-04T14:21:57.327Z,32.88
2018-08-04T14:23:06.107Z,32.77
2018-08-04T14:24:15.964Z,32.66
2018-08-04T14:25:25.550Z,32.66
2018-08-04T14:26:35.673Z,32.69
2018-08-04T14:27:45.527Z,32.69
2018-08-04T14:28:55.604Z,32.81
2018-08-04T14:30:05.196Z,32.74
2018-08-04T14:31:14.518Z,32.67
2018-08-04T14:32:24.417Z,32.41
2018-08-04T14:33:34.314Z,32.5
2018-08-04T14:34:44.524Z,32.28
2018-08-04T14:35:54.514Z,32.44
2018-08-04T14:37:04.669Z,32.35
2018-08-04T14:38:13.731Z,32.28
2018-08-04T14:39:23.876Z,32.21
2018-08-04T14:40:33.734Z,32.25
2018-08-04T14:41:43.588Z,32.32
2018-08-04T14:42:53.044Z,32.26
2018-08-04T14:44:03.124Z,32.23
2018-08-04T14:45:12.720Z,32.37
2018-08-04T14:46:22.304Z,32.57
2018-08-04T14:47:31.892Z,32.69
2018-08-04T14:48:42.021Z,32.67
2018-08-04T14:49:51.610Z,32.82
2018-08-04T14:51:01.740Z,32.97
2018-08-04T14:52:11.108Z,33.01
2018-08-04T14:53:20.160Z,33.15
2018-08-04T14:54:29.749Z,33.14
2018-08-04T14:55:39.341Z,33.19
2018-08-04T14:56:48.934Z,33.16
2018-08-04T14:57:58.522Z,33.12
2018-08-04T14:59:08.106Z,33.12
2018-08-04T15:00:17.962Z,33.14
2018-08-04T15:01:28.089Z,33.03